createdAt,value
2022-12-18T00:01:20.445Z,45.55
2022-12-18T00:03:48.048Z,47.65
2022-12-18T00:06:15.963Z,46.05
2022-12-18T00:08:44.330Z,45.30
2022-12-18T00:11:15.103Z,44.60
2022-12-18T00:13:42.548Z,44.80
2022-12-18T00:16:20.898Z,44.05
2022-12-18T00:18:49.059Z,44.72
2022-12-18T00:21:16.201Z,44.15
2022-12-18T00:23:44.918Z,44.60
2022-12-18T00:26:16.364Z,42.28
2022-12-18T00:28:44.137Z,43.58
2022-12-18T00:31:14.040Z,44.22
2022-12-18T00:33:41.566Z,40.95
2022-12-18T00:36:22.020Z,39.03
2022-12-18T00:38:49.240Z,40.67
2022-12-18T00:41:39.101Z,40.55
2022-12-18T00:44:06.833Z,38.70
2022-12-18T00:46:34.179Z,36.83
2022-12-18T00:49:00.895Z,38.83
2022-12-18T00:51:27.639Z,40.25
2022-12-18T00:53:54.344Z,42.70
2022-12-18T00:56:21.054Z,41.08
2022-12-18T00:58:47.805Z,37.20
2022-12-18T01:01:15.023Z,37.15
2022-12-18T01:03:42.318Z,42.75
2022-12-18T01:06:12.633Z,36.58
2022-12-18T01:08:39.999Z,38.72
2022-12-18T01:11:12.702Z,37.53
2022-12-18T01:13:40.755Z,39.13
2022-12-18T01:16:08.186Z,40.17
2022-12-18T01:18:36.024Z,41.47
2022-12-18T01:21:11.364Z,40.03
2022-12-18T01:23:38.995Z,37.92
2022-12-18T01:26:11.331Z,36.35
2022-12-18T01:28:39.040Z,34.55
2022-12-18T01:31:17.468Z,33.70
2022-12-18T01:33:44.665Z,33.83
2022-12-18T01:36:26.215Z,31.95
2022-12-18T01:38:54.079Z,34.85
2022-12-18T01:41:25.146Z,35.67
2022-12-18T01:43:58.258Z,32.07
2022-12-18T01:46:27.724Z,38.30
2022-12-18T01:49:02.077Z,37.28
2022-12-18T01:51:30.805Z,33.95
2022-12-18T01:54:00.235Z,37.55
2022-12-18T01:56:27.218Z,37.53
2022-12-18T01:58:59.443Z,39.55
2022-12-18T02:01:27.272Z,40.25
2022-12-18T02:03:54.481Z,36.72
2022-12-18T02:06:32.882Z,36.70
2022-12-18T02:09:08.684Z,36.90
2022-12-18T02:11:47.735Z,39.55
2022-12-18T02:14:41.349Z,34.75
2022-12-18T02:17:31.051Z,35.95
2022-12-18T02:20:15.331Z,32.65
2022-12-18T02:23:12.429Z,33.70
2022-12-18T02:26:16.174Z,31.35
2022-12-18T02:28:52.251Z,32.88
2022-12-18T02:31:26.677Z,31.98
2022-12-18T02:33:56.090Z,35.40
2022-12-18T02:36:23.681Z,32.50
2022-12-18T02:38:52.693Z,32.47
2022-12-18T02:41:20.581Z,35.28
2022-12-18T02:43:54.212Z,32.47
2022-12-18T02:46:30.593Z,35.42
2022-12-18T02:49:07.617Z,34.60
2022-12-18T02:51:50.054Z,32.70
2022-12-18T02:54:37.024Z,33.55
2022-12-18T02:57:28.414Z,31.55
2022-12-18T03:00:02.303Z,32.10
2022-12-18T03:02:48.601Z,33.60
2022-12-18T03:05:21.044Z,32.83
2022-12-18T03:08:02.660Z,30.65
2022-12-18T03:10:38.709Z,31.15
2022-12-18T03:13:09.812Z,32.35
2022-12-18T03:15:50.359Z,29.35
2022-12-18T03:18:25.874Z,28.05
2022-12-18T03:20:57.318Z,32.97
2022-12-18T03:23:28.747Z,31.85
2022-12-18T03:26:05.965Z,32.17
2022-12-18T03:28:40.456Z,35.40
2022-12-18T03:31:11.418Z,30.75
2022-12-18T03:33:53.362Z,31.95
2022-12-18T03:36:25.427Z,36.40
2022-12-18T03:38:52.591Z,36.22
2022-12-18T03:41:42.006Z,33.95
2022-12-18T03:44:24.527Z,32.70
2022-12-18T03:47:13.531Z,33.65
2022-12-18T03:49:48.873Z,32.08
2022-12-18T03:52:30.147Z,27.25
2022-12-18T03:54:59.422Z,34.50
2022-12-18T03:57:30.673Z,30.42
2022-12-18T04:00:02.596Z,29.45
2022-12-18T04:02:46.519Z,29.98
2022-12-18T04:05:20.348Z,30.75
2022-12-18T04:07:49.794Z,27.33
2022-12-18T04:10:18.838Z,27.80
2022-12-18T04:12:45.991Z,28.27
2022-12-18T04:15:14.784Z,25.77
2022-12-18T04:17:49.600Z,33.45
2022-12-18T04:20:19.152Z,29.85
2022-12-18T04:22:46.556Z,28.20
2022-12-18T04:25:13.986Z,29.70
2022-12-18T04:27:50.978Z,29.98
2022-12-18T04:30:18.180Z,27.17
2022-12-18T04:32:50.507Z,27.42
2022-12-18T04:35:19.625Z,28.52
2022-12-18T04:37:47.104Z,28.05
2022-12-18T04:40:13.990Z,31.13
2022-12-18T04:42:44.125Z,30.38
2022-12-18T04:45:11.193Z,28.92
2022-12-18T04:47:37.916Z,32.33
2022-12-18T04:50:05.101Z,28.17
2022-12-18T04:52:31.979Z,29.10
2022-12-18T04:54:58.699Z,27.92
2022-12-18T04:57:25.395Z,32.10
2022-12-18T04:59:52.074Z,31.38
2022-12-18T05:02:18.907Z,28.52
2022-12-18T05:04:45.679Z,26.10
2022-12-18T05:07:12.370Z,26.25
2022-12-18T05:09:39.073Z,27.33
2022-12-18T05:12:05.993Z,27.13
2022-12-18T05:14:32.773Z,28.98
2022-12-18T05:17:01.179Z,27.75
2022-12-18T05:19:28.105Z,28.02
2022-12-18T05:21:54.838Z,27.70
2022-12-18T05:24:21.654Z,26.95
2022-12-18T05:26:48.385Z,28.02
2022-12-18T05:29:15.109Z,27.67
2022-12-18T05:31:42.770Z,23.48
2022-12-18T05:34:10.393Z,22.73
2022-12-18T05:36:38.127Z,25.92
2022-12-18T05:39:04.923Z,26.50
2022-12-18T05:41:32.945Z,27.80
2022-12-18T05:43:59.994Z,27.05
2022-12-18T05:46:27.146Z,25.58
2022-12-18T05:48:53.924Z,27.27
2022-12-18T05:51:23.322Z,28.80
2022-12-18T05:53:50.164Z,24.42
2022-12-18T05:56:20.750Z,25.95
2022-12-18T05:58:48.291Z,29.45
2022-12-18T06:01:21.763Z,30.20
2022-12-18T06:03:48.608Z,25.08
2022-12-18T06:06:20.955Z,30.77
2022-12-18T06:08:48.208Z,26.10
2022-12-18T06:11:19.320Z,27.88
2022-12-18T06:13:47.346Z,27.02
2022-12-18T06:16:14.343Z,27.48
2022-12-18T06:18:41.076Z,27.15
2022-12-18T06:21:07.826Z,25.70
2022-12-18T06:23:35.073Z,22.95
2022-12-18T06:26:08.950Z,26.33
2022-12-18T06:28:35.765Z,24.50
2022-12-18T06:31:04.571Z,23.88
2022-12-18T06:33:31.543Z,23.95
2022-12-18T06:36:12.239Z,26.60
2022-12-18T06:38:42.340Z,28.40
2022-12-18T06:41:15.903Z,24.20
2022-12-18T06:43:43.921Z,26.30
2022-12-18T06:46:11.691Z,28.98
2022-12-18T06:48:38.841Z,26.90
2022-12-18T06:51:05.773Z,27.25
2022-12-18T06:53:34.137Z,27.88
2022-12-18T06:56:11.075Z,29.15
2022-12-18T06:58:39.133Z,25.70
2022-12-18T07:01:07.911Z,27.23
2022-12-18T07:03:34.974Z,27.90
2022-12-18T07:06:02.196Z,25.17
2022-12-18T07:08:31.789Z,25.15
2022-12-18T07:10:58.875Z,25.90
2022-12-18T07:13:25.777Z,25.95
2022-12-18T07:15:52.438Z,26.92
2022-12-18T07:18:19.150Z,24.50
2022-12-18T07:20:46.037Z,28.60
2022-12-18T07:23:14.479Z,28.98
2022-12-18T07:25:41.570Z,27.48
2022-12-18T07:28:11.663Z,28.38
2022-12-18T07:30:42.401Z,27.75
2022-12-18T07:33:09.178Z,29.45
2022-12-18T07:35:39.044Z,30.20
2022-12-18T07:38:05.967Z,29.55
2022-12-18T07:40:32.670Z,24.45
2022-12-18T07:42:59.383Z,27.27
2022-12-18T07:45:26.112Z,22.58
2022-12-18T07:47:52.863Z,23.75
2022-12-18T07:50:19.649Z,22.58
2022-12-18T07:52:46.319Z,22.42
2022-12-18T07:55:13.158Z,22.55
2022-12-18T07:57:50.456Z,21.25
2022-12-18T08:00:18.967Z,21.00
2022-12-18T08:02:45.708Z,17.25
2022-12-18T08:05:12.548Z,12.93
2022-12-18T08:07:39.278Z,14.95
2022-12-18T08:10:07.213Z,15.25
2022-12-18T08:12:34.024Z,19.58
2022-12-18T08:15:01.087Z,21.75
2022-12-18T08:17:27.776Z,21.95
2022-12-18T08:19:54.511Z,22.50
2022-12-18T08:22:21.181Z,22.20
2022-12-18T08:24:47.893Z,23.17
2022-12-18T08:27:29.218Z,21.65
2022-12-18T08:29:57.677Z,17.27
2022-12-18T08:32:26.030Z,15.35
2022-12-18T08:34:52.834Z,14.60
2022-12-18T08:37:19.727Z,10.07
2022-12-18T08:39:46.519Z,8.70
2022-12-18T08:42:32.036Z,9.48
2022-12-18T08:44:58.753Z,8.27
2022-12-18T08:47:26.934Z,8.07
2022-12-18T08:49:53.968Z,9.25
2022-12-18T08:52:20.680Z,8.10
2022-12-18T08:54:47.440Z,8.20
2022-12-18T08:57:14.137Z,7.68
2022-12-18T08:59:40.814Z,8.68
2022-12-18T09:02:09.249Z,8.93
2022-12-18T09:04:36.120Z,9.25
2022-12-18T09:07:02.862Z,9.63
2022-12-18T09:09:29.650Z,7.53
2022-12-18T09:11:56.354Z,9.23
2022-12-18T09:14:23.035Z,8.80
2022-12-18T09:16:49.888Z,7.90
2022-12-18T09:19:16.622Z,9.32
2022-12-18T09:21:47.711Z,8.27
2022-12-18T09:24:15.670Z,7.97
2022-12-18T09:26:43.364Z,8.77
2022-12-18T09:29:13.608Z,8.77
2022-12-18T09:31:40.577Z,9.80
2022-12-18T09:34:07.793Z,8.75
2022-12-18T09:36:34.563Z,9.25
2022-12-18T09:39:06.293Z,8.35
2022-12-18T09:41:54.522Z,8.52
2022-12-18T09:44:24.131Z,7.88
2022-12-18T09:47:06.030Z,8.30
2022-12-18T09:49:37.180Z,6.97
2022-12-18T09:52:24.166Z,7.60
2022-12-18T09:54:58.791Z,8.05
2022-12-18T09:57:26.533Z,7.75
2022-12-18T09:59:59.427Z,8.05
2022-12-18T10:02:28.613Z,7.78
2022-12-18T10:05:04.932Z,8.65
2022-12-18T10:08:00.719Z,7.50
2022-12-18T10:10:43.375Z,7.57
2022-12-18T10:13:27.842Z,8.13
2022-12-18T10:16:23.324Z,7.78
2022-12-18T10:18:53.151Z,7.85
2022-12-18T10:21:46.753Z,7.30
2022-12-18T10:24:40.064Z,6.78
2022-12-18T10:27:27.260Z,7.60
2022-12-18T10:29:54.988Z,6.45
2022-12-18T10:32:25.897Z,6.60
2022-12-18T10:35:00.147Z,7.30
2022-12-18T10:37:29.987Z,7.88
2022-12-18T10:40:09.133Z,6.35
2022-12-18T10:42:36.034Z,5.95
2022-12-18T10:45:09.132Z,5.88
2022-12-18T10:47:36.061Z,5.72
2022-12-18T10:50:03.924Z,5.13
2022-12-18T10:52:30.938Z,4.97
2022-12-18T10:55:04.147Z,4.90
2022-12-18T10:57:30.874Z,6.22
2022-12-18T10:59:59.627Z,4.80
2022-12-18T11:02:35.728Z,5.22
2022-12-18T11:05:03.869Z,4.22
2022-12-18T11:07:51.683Z,4.90
2022-12-18T11:10:19.898Z,5.80
2022-12-18T11:12:47.209Z,5.03
2022-12-18T11:15:22.008Z,4.95
2022-12-18T11:17:53.132Z,4.63
2022-12-18T11:20:33.336Z,4.60
2022-12-18T11:23:03.710Z,5.45
2022-12-18T11:25:33.108Z,5.25
2022-12-18T11:28:20.492Z,4.40
2022-12-18T11:30:47.529Z,4.43
2022-12-18T11:33:21.652Z,4.43
2022-12-18T11:35:56.009Z,4.82
2022-12-18T11:38:30.476Z,5.10
2022-12-18T11:41:12.365Z,5.43
2022-12-18T11:44:03.254Z,5.43
2022-12-18T11:46:35.417Z,5.50
2022-12-18T11:51:45.892Z,5.43
2022-12-18T11:54:16.628Z,4.07
2022-12-18T11:56:56.410Z,4.35
2022-12-18T11:59:36.605Z,4.95
2022-12-18T12:02:41.632Z,5.47
2022-12-18T12:05:17.512Z,4.82
2022-12-18T12:07:56.305Z,4.72
2022-12-18T12:10:33.246Z,4.95
2022-12-18T12:13:18.564Z,4.45
2022-12-18T12:16:01.248Z,5.50
2022-12-18T12:18:39.004Z,4.55
2022-12-18T12:21:16.052Z,7.28
2022-12-18T12:24:13.238Z,5.60
2022-12-18T12:26:45.203Z,5.78
2022-12-18T12:29:37.438Z,4.95
2022-12-18T12:32:08.554Z,5.70
2022-12-18T12:34:44.034Z,6.00
2022-12-18T12:37:43.722Z,6.32
2022-12-18T12:40:49.263Z,6.43
2022-12-18T12:43:31.747Z,6.57
2022-12-18T12:46:06.141Z,6.30
2022-12-18T12:48:44.708Z,7.32
2022-12-18T12:51:19.304Z,6.95
2022-12-18T12:53:48.289Z,6.28
2022-12-18T12:56:18.867Z,7.15
2022-12-18T12:59:04.370Z,6.45
2022-12-18T13:01:38.420Z,5.63
2022-12-18T13:04:31.836Z,7.15
2022-12-18T13:07:18.279Z,7.35
2022-12-18T13:10:15.497Z,8.07
2022-12-18T13:13:17.361Z,8.70
2022-12-18T13:16:07.920Z,8.25
2022-12-18T13:18:36.048Z,8.93
2022-12-18T13:21:38.041Z,9.90
2022-12-18T13:24:28.617Z,4.57
2022-12-18T13:26:56.138Z,8.30
2022-12-18T13:29:55.244Z,5.60
2022-12-18T13:32:24.514Z,6.80
2022-12-18T13:35:23.299Z,6.32
2022-12-18T13:37:56.139Z,5.80
2022-12-18T13:40:42.224Z,6.65
2022-12-18T13:43:21.308Z,5.93
2022-12-18T13:45:51.007Z,5.97
2022-12-18T13:48:26.236Z,7.95
2022-12-18T13:51:09.529Z,6.38
2022-12-18T13:53:47.479Z,6.63
2022-12-18T13:56:21.906Z,6.53
2022-12-18T13:59:37.510Z,5.82
2022-12-18T14:02:18.079Z,6.55
2022-12-18T14:04:50.205Z,6.10
2022-12-18T14:07:30.593Z,5.95
2022-12-18T14:10:25.883Z,5.18
2022-12-18T14:12:57.796Z,5.32
2022-12-18T14:15:31.999Z,5.20
2022-12-18T14:18:40.765Z,5.90
2022-12-18T14:21:16.553Z,5.95
2022-12-18T14:23:44.060Z,5.25
2022-12-18T14:26:30.271Z,5.72
2022-12-18T14:29:01.910Z,5.07
2022-12-18T14:31:31.289Z,4.75
2022-12-18T14:33:58.316Z,5.70
2022-12-18T14:36:28.172Z,6.85
2022-12-18T14:38:57.060Z,5.38
2022-12-18T14:41:25.482Z,5.18
2022-12-18T14:43:54.856Z,5.68
2022-12-18T14:46:33.805Z,6.68
2022-12-18T14:49:35.152Z,5.32
2022-12-18T14:52:07.157Z,4.95
2022-12-18T14:54:38.106Z,5.78
2022-12-18T14:57:44.258Z,5.20
2022-12-18T15:00:20.289Z,4.72
2022-12-18T15:02:53.765Z,7.03
2022-12-18T15:05:30.292Z,4.72
2022-12-18T15:07:59.612Z,4.70
2022-12-18T15:10:35.781Z,4.68
2022-12-18T15:13:03.926Z,4.22
2022-12-18T15:15:36.953Z,4.80
2022-12-18T15:18:11.220Z,4.93
2022-12-18T15:20:50.484Z,5.10
2022-12-18T15:23:22.622Z,4.55
2022-12-18T15:28:24.902Z,5.00
2022-12-18T15:31:09.784Z,5.20
2022-12-18T15:33:43.168Z,5.25
2022-12-18T15:36:12.479Z,5.30
2022-12-18T15:38:39.230Z,4.47
2022-12-18T15:41:11.556Z,5.18
2022-12-18T15:43:41.352Z,4.57
2022-12-18T15:46:13.799Z,5.38
2022-12-18T15:48:55.412Z,4.40
2022-12-18T15:51:29.944Z,5.55
2022-12-18T15:54:00.024Z,4.53
2022-12-18T15:56:46.147Z,5.00
2022-12-18T15:59:18.770Z,4.70
2022-12-18T16:01:50.531Z,4.47
2022-12-18T16:04:21.526Z,4.63
2022-12-18T16:07:14.008Z,4.53
2022-12-18T16:09:36.547Z,5.53
2022-12-18T16:12:03.903Z,4.50
2022-12-18T16:14:32.159Z,5.22
2022-12-18T16:17:04.649Z,5.50
2022-12-18T16:19:31.509Z,5.63
2022-12-18T16:21:59.409Z,8.15
2022-12-18T16:24:33.156Z,4.35
2022-12-18T16:27:01.336Z,4.65
2022-12-18T16:29:29.630Z,5.38
2022-12-18T16:31:57.866Z,5.50
2022-12-18T16:34:29.770Z,5.55
2022-12-18T16:39:34.021Z,5.22
2022-12-18T16:42:05.626Z,4.80
2022-12-18T16:44:32.973Z,4.65
2022-12-18T16:47:02.776Z,4.97
2022-12-18T16:49:29.812Z,4.85
2022-12-18T16:51:56.647Z,4.15
2022-12-18T16:54:23.631Z,5.18
2022-12-18T16:56:51.601Z,5.28
2022-12-18T16:59:19.122Z,4.55
2022-12-18T17:01:47.226Z,4.13
2022-12-18T17:04:14.929Z,4.60
2022-12-18T17:06:43.674Z,5.50
2022-12-18T17:09:18.318Z,5.30
2022-12-18T17:11:45.096Z,5.43
2022-12-18T17:14:15.630Z,5.38
2022-12-18T17:16:42.386Z,5.28
2022-12-18T17:19:16.619Z,5.97
2022-12-18T17:21:45.712Z,6.00
2022-12-18T17:24:12.517Z,4.93
2022-12-18T17:26:39.319Z,5.32
2022-12-18T17:29:06.386Z,5.57
2022-12-18T17:31:34.409Z,5.45
2022-12-18T17:34:04.542Z,5.25
2022-12-18T17:36:32.361Z,6.05
2022-12-18T17:39:03.225Z,5.30
2022-12-18T17:41:31.011Z,5.00
2022-12-18T17:44:00.231Z,6.20
2022-12-18T17:46:28.898Z,6.22
2022-12-18T17:48:56.495Z,5.65
2022-12-18T17:51:23.286Z,5.88
2022-12-18T17:53:50.490Z,5.45
2022-12-18T17:56:19.533Z,5.95
2022-12-18T17:58:47.997Z,5.28
2022-12-18T18:01:17.221Z,5.78
2022-12-18T18:03:44.703Z,6.88
2022-12-18T18:06:11.847Z,6.45
2022-12-18T18:08:39.059Z,6.47
2022-12-18T18:11:32.075Z,7.03
2022-12-18T18:14:02.313Z,6.10
2022-12-18T18:16:30.243Z,6.20
2022-12-18T18:18:59.096Z,7.15
2022-12-18T18:21:26.092Z,6.47
2022-12-18T18:23:53.179Z,6.05
2022-12-18T18:26:19.984Z,5.43
2022-12-18T18:28:47.080Z,5.97
2022-12-18T18:31:13.837Z,6.07
2022-12-18T18:33:40.874Z,6.25
2022-12-18T18:36:10.258Z,5.78
2022-12-18T18:38:36.983Z,5.95
2022-12-18T18:41:04.938Z,5.22
2022-12-18T18:43:32.139Z,6.47
2022-12-18T18:46:00.872Z,6.05
2022-12-18T18:48:30.838Z,6.78
2022-12-18T18:53:44.762Z,5.97
2022-12-18T18:59:00.760Z,5.40
2022-12-18T19:01:27.819Z,5.95
2022-12-18T19:03:54.732Z,5.95
2022-12-18T19:06:26.813Z,7.72
2022-12-18T19:08:54.767Z,8.32
2022-12-18T19:11:41.699Z,7.15
2022-12-18T19:14:11.400Z,6.13
2022-12-18T19:16:38.532Z,6.55
2022-12-18T19:19:06.472Z,7.47
2022-12-18T19:21:34.265Z,7.18
2022-12-18T19:24:02.777Z,8.50
2022-12-18T19:26:30.110Z,8.23
2022-12-18T19:29:04.711Z,7.13
2022-12-18T19:31:35.993Z,7.68
2022-12-18T19:34:04.830Z,9.30
2022-12-18T19:36:33.179Z,8.25
2022-12-18T19:39:01.540Z,8.98
2022-12-18T19:41:32.034Z,8.70
2022-12-18T19:44:00.028Z,8.32
2022-12-18T19:46:29.012Z,9.82
2022-12-18T19:48:55.741Z,12.82
2022-12-18T19:51:27.125Z,10.77
2022-12-18T19:53:58.450Z,12.10
2022-12-18T19:56:27.606Z,12.10
2022-12-18T19:58:55.026Z,10.73
2022-12-18T20:01:23.470Z,10.45
2022-12-18T20:03:52.456Z,8.60
2022-12-18T20:06:27.388Z,9.13
2022-12-18T20:08:57.619Z,8.57
2022-12-18T20:11:27.512Z,9.07
2022-12-18T20:13:54.247Z,8.80
2022-12-18T20:16:20.943Z,8.35
2022-12-18T20:18:47.911Z,8.68
2022-12-18T20:21:14.926Z,9.43
2022-12-18T20:23:41.980Z,9.77
2022-12-18T20:26:09.125Z,7.78
2022-12-18T20:28:36.085Z,9.40
2022-12-18T20:31:10.608Z,10.00
2022-12-18T20:33:41.649Z,10.05
2022-12-18T20:36:15.662Z,9.45
2022-12-18T20:38:43.714Z,8.60
2022-12-18T20:41:16.300Z,9.75
2022-12-18T20:43:44.110Z,9.95
2022-12-18T20:46:13.524Z,9.23
2022-12-18T20:48:41.216Z,9.45
2022-12-18T20:51:10.526Z,9.88
2022-12-18T20:53:38.691Z,9.40
2022-12-18T20:56:11.119Z,8.07
2022-12-18T20:58:37.965Z,10.25
2022-12-18T21:01:08.361Z,9.75
2022-12-18T21:03:36.547Z,10.90
2022-12-18T21:06:03.858Z,9.25
2022-12-18T21:08:30.712Z,10.00
2022-12-18T21:11:36.073Z,9.25
2022-12-18T21:14:05.170Z,9.45
2022-12-18T21:16:32.330Z,9.75
2022-12-18T21:18:59.207Z,9.77
2022-12-18T21:21:26.875Z,9.07
2022-12-18T21:23:54.288Z,10.02
2022-12-18T21:26:26.202Z,11.57
2022-12-18T21:31:23.395Z,11.88
2022-12-18T21:33:50.492Z,11.27
2022-12-18T21:36:18.937Z,12.02
2022-12-18T21:38:45.829Z,11.73
2022-12-18T21:41:35.322Z,10.60
2022-12-18T21:44:05.663Z,10.10
2022-12-18T21:46:40.678Z,10.77
2022-12-18T21:49:09.174Z,11.23
2022-12-18T21:51:36.718Z,11.07
2022-12-18T21:54:04.007Z,11.55
2022-12-18T21:56:50.968Z,13.07
2022-12-18T21:59:23.898Z,10.32
2022-12-18T22:01:52.077Z,10.77
2022-12-18T22:04:20.303Z,10.35
2022-12-18T22:06:48.833Z,11.32
2022-12-18T22:09:17.982Z,11.57
2022-12-18T22:11:45.515Z,11.40
2022-12-18T22:14:13.608Z,10.75
2022-12-18T22:16:40.894Z,10.65
2022-12-18T22:19:08.350Z,10.43
2022-12-18T22:21:38.298Z,9.82
2022-12-18T22:24:08.031Z,11.57
2022-12-18T22:26:40.203Z,10.05
2022-12-18T22:29:28.381Z,10.60
2022-12-18T22:31:56.856Z,11.38
2022-12-18T22:34:23.625Z,10.43
2022-12-18T22:36:50.838Z,10.18
2022-12-18T22:39:19.559Z,10.77
2022-12-18T22:41:46.469Z,12.02
2022-12-18T22:44:13.731Z,10.63
2022-12-18T22:46:47.209Z,11.40
2022-12-18T22:49:20.385Z,11.50
2022-12-18T22:51:48.137Z,11.05
2022-12-18T22:54:15.318Z,11.48
2022-12-18T22:56:43.394Z,10.55
2022-12-18T22:59:19.595Z,10.23
2022-12-18T23:01:47.191Z,10.93
2022-12-18T23:04:15.339Z,10.43
2022-12-18T23:06:43.270Z,11.00
2022-12-18T23:09:16.526Z,10.15
2022-12-18T23:11:43.998Z,11.27
2022-12-18T23:14:11.127Z,11.50
2022-12-18T23:16:37.886Z,11.55
2022-12-18T23:19:05.671Z,10.00
2022-12-18T23:21:32.368Z,11.00
2022-12-18T23:24:00.738Z,13.20
2022-12-18T23:26:27.701Z,13.13
2022-12-18T23:28:57.897Z,11.18
2022-12-18T23:31:27.997Z,11.85
2022-12-18T23:33:57.168Z,12.70
2022-12-18T23:36:24.957Z,11.20
2022-12-18T23:38:54.681Z,10.88
2022-12-18T23:41:23.799Z,11.00
2022-12-18T23:43:51.141Z,11.20
2022-12-18T23:46:19.160Z,11.57
2022-12-18T23:48:46.246Z,11.43
2022-12-18T23:51:14.195Z,11.05
2022-12-18T23:53:41.191Z,11.18
2022-12-18T23:56:09.714Z,11.70
2022-12-18T23:58:37.794Z,11.98
